createdAt,value
2017-11-04T00:01:48.711Z,31.03
2017-11-04T00:04:20.082Z,36.07
2017-11-04T00:06:51.722Z,32.13
2017-11-04T00:09:23.190Z,32.30
2017-11-04T00:11:54.789Z,29.17
2017-11-04T00:14:26.130Z,99.90
2017-11-04T00:16:57.516Z,93.97
2017-11-04T00:19:30.132Z,40.23
2017-11-04T00:22:02.683Z,39.10
2017-11-04T00:24:34.352Z,33.60
2017-11-04T00:27:05.901Z,34.87
2017-11-04T00:29:37.605Z,32.17
2017-11-04T00:32:09.591Z,33.20
2017-11-04T00:34:40.930Z,34.50
2017-11-04T00:37:13.507Z,37.57
2017-11-04T00:39:44.820Z,31.37
2017-11-04T00:42:16.133Z,35.57
2017-11-04T00:44:47.813Z,32.90
2017-11-04T00:47:19.317Z,38.30
2017-11-04T00:49:50.732Z,32.40
2017-11-04T00:52:22.417Z,31.37
2017-11-04T00:54:53.733Z,40.90
2017-11-04T00:57:25.047Z,38.87
2017-11-04T00:59:56.352Z,35.77
2017-11-04T01:02:27.653Z,35.77
2017-11-04T01:04:59.263Z,33.37
2017-11-04T01:07:30.623Z,34.73
2017-11-04T01:10:02.707Z,32.40
2017-11-04T01:12:34.372Z,32.90
2017-11-04T01:15:05.982Z,32.10
2017-11-04T01:17:37.497Z,34.30
2017-11-04T01:20:10.394Z,33.40
2017-11-04T01:22:41.799Z,32.27
2017-11-04T01:25:13.750Z,33.83
2017-11-04T01:27:45.532Z,32.20
2017-11-04T01:30:16.854Z,35.03
2017-11-04T01:32:48.186Z,33.70
2017-11-04T01:35:19.867Z,40.10
2017-11-04T01:37:51.169Z,31.53
2017-11-04T01:40:22.532Z,29.57
2017-11-04T01:42:54.164Z,37.63
2017-11-04T01:45:25.499Z,40.30
2017-11-04T01:47:56.957Z,36.87
2017-11-04T01:50:29.626Z,37.83
2017-11-04T01:53:01.166Z,37.97
2017-11-04T01:55:32.553Z,36.00
2017-11-04T01:58:06.329Z,38.63
2017-11-04T02:00:37.863Z,33.67
2017-11-04T02:03:09.964Z,35.37
2017-11-04T02:05:41.599Z,34.30
2017-11-04T02:08:13.001Z,35.03
2017-11-04T02:10:44.593Z,39.17
2017-11-04T02:13:15.951Z,32.67
2017-11-04T02:15:47.862Z,32.83
2017-11-04T02:18:19.229Z,35.87
2017-11-04T02:20:50.890Z,30.30
2017-11-04T02:23:22.213Z,32.67
2017-11-04T02:25:53.525Z,29.57
2017-11-04T02:28:25.168Z,30.07
2017-11-04T02:30:56.479Z,30.87
2017-11-04T02:33:28.078Z,28.77
2017-11-04T02:35:59.438Z,34.87
2017-11-04T02:38:31.083Z,30.60
2017-11-04T02:41:04.453Z,35.13
2017-11-04T02:43:35.750Z,28.60
2017-11-04T02:46:07.571Z,30.90
2017-11-04T02:48:39.396Z,29.80
2017-11-04T02:51:11.638Z,30.53
2017-11-04T02:53:43.017Z,30.60
2017-11-04T02:56:14.734Z,29.23
2017-11-04T02:58:46.040Z,36.03
2017-11-04T03:01:17.363Z,31.93
2017-11-04T03:03:49.009Z,34.77
2017-11-04T03:06:21.371Z,37.27
2017-11-04T03:08:52.966Z,37.63
2017-11-04T03:11:24.286Z,35.83
2017-11-04T03:13:55.607Z,36.33
2017-11-04T03:16:27.236Z,38.90
2017-11-04T03:18:58.547Z,41.87
2017-11-04T03:21:29.993Z,38.07
2017-11-04T03:24:03.850Z,36.73
2017-11-04T03:26:35.229Z,38.97
2017-11-04T03:29:06.909Z,36.43
2017-11-04T03:31:38.536Z,37.97
2017-11-04T03:34:10.818Z,33.90
2017-11-04T03:36:42.145Z,34.67
2017-11-04T03:39:15.100Z,37.23
2017-11-04T03:41:46.436Z,36.40
2017-11-04T03:44:17.889Z,39.23
2017-11-04T03:46:49.552Z,35.63
2017-11-04T03:49:21.082Z,39.27
2017-11-04T03:51:52.381Z,37.13
2017-11-04T03:54:25.031Z,36.33
2017-11-04T03:56:56.366Z,37.90
2017-11-04T03:59:27.685Z,36.70
2017-11-04T04:01:59.317Z,36.27
2017-11-04T04:04:30.676Z,31.17
2017-11-04T04:07:02.459Z,35.03
2017-11-04T04:09:34.347Z,35.17
2017-11-04T04:12:06.518Z,34.20
2017-11-04T04:14:38.017Z,35.10
2017-11-04T04:17:10.370Z,31.03
2017-11-04T04:19:41.695Z,36.30
2017-11-04T04:22:14.256Z,33.10
2017-11-04T04:24:45.596Z,36.63
2017-11-04T04:27:18.579Z,35.83
2017-11-04T04:29:50.514Z,31.43
2017-11-04T04:32:22.113Z,35.37
2017-11-04T04:34:53.469Z,34.30
2017-11-04T04:37:25.908Z,33.03
2017-11-04T04:39:57.355Z,35.97
2017-11-04T04:42:28.771Z,30.77
2017-11-04T04:45:00.467Z,33.23
2017-11-04T04:47:31.893Z,31.10
2017-11-04T04:50:08.533Z,34.20
2017-11-04T04:52:40.767Z,33.70
2017-11-04T04:55:12.917Z,33.60
2017-11-04T04:57:44.245Z,32.07
2017-11-04T05:00:16.473Z,32.57
2017-11-04T05:02:47.847Z,30.23
2017-11-04T05:05:20.805Z,24.80
2017-11-04T05:07:53.073Z,30.93
2017-11-04T05:10:24.724Z,27.97
2017-11-04T05:12:56.056Z,31.57
2017-11-04T05:15:27.531Z,33.20
2017-11-04T05:17:59.116Z,28.37
2017-11-04T05:20:30.491Z,29.80
2017-11-04T05:23:02.614Z,29.50
2017-11-04T05:25:34.233Z,28.10
2017-11-04T05:28:07.757Z,29.50
2017-11-04T05:30:39.102Z,28.80
2017-11-04T05:33:13.483Z,29.50
2017-11-04T05:35:44.873Z,30.40
2017-11-04T05:38:16.471Z,29.63
2017-11-04T05:40:48.240Z,28.10
2017-11-04T05:43:19.669Z,26.97
2017-11-04T05:45:50.996Z,29.03
2017-11-04T05:48:22.352Z,30.20
2017-11-04T05:50:53.759Z,26.50
2017-11-04T05:53:25.391Z,27.20
2017-11-04T05:55:57.653Z,30.30
2017-11-04T05:58:29.121Z,28.73
2017-11-04T06:01:01.029Z,28.00
2017-11-04T06:03:32.346Z,30.67
2017-11-04T06:06:04.856Z,27.10
2017-11-04T06:09:39.127Z,25.87
2017-11-04T06:12:10.608Z,28.40
2017-11-04T06:14:41.965Z,25.90
2017-11-04T06:17:13.792Z,25.70
2017-11-04T06:19:45.096Z,29.37
2017-11-04T06:22:17.066Z,26.83
2017-11-04T06:24:49.205Z,29.50
2017-11-04T06:27:20.965Z,30.80
2017-11-04T06:29:52.544Z,28.40
2017-11-04T06:32:24.007Z,30.17
2017-11-04T06:34:55.352Z,27.80
2017-11-04T06:37:27.045Z,27.53
2017-11-04T06:39:58.353Z,28.00
2017-11-04T06:42:29.898Z,25.73
2017-11-04T06:45:01.819Z,27.20
2017-11-04T06:47:33.173Z,30.10
2017-11-04T06:50:05.388Z,30.53
2017-11-04T06:52:37.165Z,29.07
2017-11-04T06:55:08.674Z,31.33
2017-11-04T06:57:40.102Z,31.47
2017-11-04T07:00:12.363Z,28.63
2017-11-04T07:02:43.757Z,28.47
2017-11-04T07:05:15.441Z,32.80
2017-11-04T07:07:46.811Z,29.80
2017-11-04T07:10:18.165Z,30.70
2017-11-04T07:12:49.874Z,25.80
2017-11-04T07:15:21.232Z,27.77
2017-11-04T07:17:52.568Z,31.40
2017-11-04T07:20:24.242Z,29.00
2017-11-04T07:22:55.647Z,33.20
2017-11-04T07:25:27.472Z,32.70
2017-11-04T07:27:59.391Z,31.17
2017-11-04T07:30:30.752Z,30.77
2017-11-04T07:33:02.826Z,33.67
2017-11-04T07:35:34.149Z,31.90
2017-11-04T07:38:06.829Z,29.80
2017-11-04T07:40:38.305Z,29.07
2017-11-04T07:43:09.853Z,29.83
2017-11-04T07:45:41.476Z,28.90
2017-11-04T07:48:12.921Z,27.30
2017-11-04T07:50:44.313Z,29.80
2017-11-04T07:53:16.065Z,26.73
2017-11-04T07:55:47.465Z,26.70
2017-11-04T07:58:19.091Z,26.73
2017-11-04T08:00:50.547Z,30.27
2017-11-04T08:03:21.959Z,27.47
2017-11-04T08:05:53.696Z,28.10
2017-11-04T08:08:25.038Z,26.83
2017-11-04T08:10:58.939Z,29.40
2017-11-04T08:13:31.344Z,29.03
2017-11-04T08:16:03.517Z,28.73
2017-11-04T08:18:34.864Z,28.97
2017-11-04T08:21:06.529Z,26.57
2017-11-04T08:23:37.859Z,24.20
2017-11-04T08:26:09.356Z,23.40
2017-11-04T08:28:41.062Z,23.93
2017-11-04T08:31:12.425Z,22.60
2017-11-04T08:33:43.889Z,24.30
2017-11-04T08:36:20.909Z,21.87
2017-11-04T08:38:52.367Z,22.90
2017-11-04T08:41:25.420Z,24.93
2017-11-04T08:43:56.952Z,23.30
2017-11-04T08:46:28.420Z,23.47
2017-11-04T08:49:00.182Z,22.03
2017-11-04T08:51:36.007Z,25.50
2017-11-04T08:56:37.732Z,24.13
2017-11-04T08:59:10.553Z,24.97
2017-11-04T09:01:42.869Z,25.90
2017-11-04T09:04:15.800Z,23.00
2017-11-04T09:06:45.889Z,22.73
2017-11-04T09:09:17.211Z,24.63
2017-11-04T09:11:48.551Z,22.97
2017-11-04T09:14:20.327Z,26.00
2017-11-04T09:16:51.989Z,24.87
2017-11-04T09:19:23.311Z,23.60
2017-11-04T09:21:54.612Z,24.50
2017-11-04T09:24:25.996Z,24.50
2017-11-04T09:26:58.003Z,24.63
2017-11-04T09:29:29.647Z,24.90
2017-11-04T09:32:01.068Z,21.57
2017-11-04T09:34:32.684Z,23.90
2017-11-04T09:37:04.414Z,24.20
2017-11-04T09:39:35.732Z,70.70
2017-11-04T09:42:08.272Z,25.77
2017-11-04T09:44:39.649Z,25.60
2017-11-04T09:47:11.097Z,25.40
2017-11-04T09:49:42.788Z,23.80
2017-11-04T09:52:16.009Z,23.07
2017-11-04T09:54:47.400Z,22.37
2017-11-04T09:57:20.517Z,22.57
2017-11-04T09:59:51.883Z,22.27
2017-11-04T10:02:23.232Z,22.13
2017-11-04T10:04:55.118Z,24.03
2017-11-04T10:07:26.490Z,21.87
2017-11-04T10:09:57.864Z,22.50
2017-11-04T10:12:29.468Z,21.37
2017-11-04T10:15:00.786Z,21.20
2017-11-04T10:17:32.313Z,21.07
2017-11-04T10:20:05.005Z,19.50
2017-11-04T10:22:36.314Z,20.20
2017-11-04T10:25:07.702Z,20.07
2017-11-04T10:27:39.649Z,19.60
2017-11-04T10:30:12.034Z,22.33
2017-11-04T10:32:43.515Z,22.20
2017-11-04T10:35:16.036Z,20.30
2017-11-04T10:37:47.531Z,22.10
2017-11-04T10:40:18.853Z,21.60
2017-11-04T10:42:50.444Z,23.33
2017-11-04T10:45:21.784Z,21.93
2017-11-04T10:47:53.099Z,22.40
2017-11-04T10:50:25.371Z,22.50
2017-11-04T10:52:59.756Z,24.07
2017-11-04T10:55:31.059Z,24.37
2017-11-04T10:58:04.464Z,25.57
2017-11-04T11:00:35.812Z,24.07
2017-11-04T11:03:07.112Z,24.93
2017-11-04T11:05:38.739Z,23.70
2017-11-04T11:08:10.274Z,23.40
2017-11-04T11:10:41.583Z,22.23
2017-11-04T11:13:13.191Z,24.70
2017-11-04T11:15:44.561Z,23.53
2017-11-04T11:18:15.880Z,23.13
2017-11-04T11:20:48.465Z,22.47
2017-11-04T11:23:20.315Z,19.60
2017-11-04T11:25:51.647Z,19.93
2017-11-04T11:28:23.293Z,21.00
2017-11-04T11:30:54.843Z,21.00
2017-11-04T11:33:26.464Z,21.20
2017-11-04T11:35:57.875Z,23.80
2017-11-04T11:38:29.200Z,21.40
2017-11-04T11:41:00.761Z,20.67
2017-11-04T11:43:33.266Z,20.67
2017-11-04T11:46:05.965Z,20.17
2017-11-04T11:48:37.263Z,20.43
2017-11-04T11:51:10.362Z,18.63
2017-11-04T11:53:41.703Z,18.87
2017-11-04T11:56:13.284Z,20.30
2017-11-04T11:58:45.034Z,18.10
2017-11-04T12:01:16.306Z,17.37
2017-11-04T12:03:47.998Z,17.13
2017-11-04T12:06:19.359Z,18.07
2017-11-04T12:08:50.965Z,15.87
2017-11-04T12:11:22.305Z,17.13
2017-11-04T12:13:53.588Z,16.93
2017-11-04T12:16:25.187Z,17.20
2017-11-04T12:18:56.513Z,18.57
2017-11-04T12:21:27.844Z,18.70
2017-11-04T12:23:59.534Z,17.37
2017-11-04T12:26:30.859Z,15.90
2017-11-04T12:29:03.519Z,18.10
2017-11-04T12:31:36.676Z,16.20
2017-11-04T12:34:09.180Z,15.70
2017-11-04T12:36:41.984Z,16.00
2017-11-04T12:39:15.732Z,17.87
2017-11-04T12:41:48.349Z,15.53
2017-11-04T12:44:21.694Z,15.03
2017-11-04T12:46:54.319Z,18.13
2017-11-04T12:49:27.064Z,15.47
2017-11-04T12:51:59.341Z,15.73
2017-11-04T12:54:31.990Z,16.70
2017-11-04T12:57:05.186Z,16.90
2017-11-04T12:59:37.608Z,17.83
2017-11-04T13:02:09.405Z,19.30
2017-11-04T13:04:41.053Z,18.27
2017-11-04T13:07:12.365Z,19.83
2017-11-04T13:09:43.971Z,17.53
2017-11-04T13:12:15.387Z,18.00
2017-11-04T13:14:46.733Z,19.03
2017-11-04T13:17:18.336Z,18.20
2017-11-04T13:19:49.673Z,17.67
2017-11-04T13:22:21.061Z,19.27
2017-11-04T13:24:52.752Z,18.30
2017-11-04T13:27:24.490Z,20.20
2017-11-04T13:29:56.793Z,18.30
2017-11-04T13:32:28.112Z,18.30
2017-11-04T13:34:59.636Z,18.80
2017-11-04T13:37:31.306Z,17.43
2017-11-04T13:40:05.494Z,15.80
2017-11-04T13:42:37.061Z,18.70
2017-11-04T13:45:08.523Z,22.90
2017-11-04T13:47:40.166Z,17.20
2017-11-04T13:50:14.580Z,16.97
2017-11-04T13:52:46.051Z,17.43
2017-11-04T13:55:18.603Z,17.90
2017-11-04T13:57:49.945Z,16.13
2017-11-04T14:00:21.467Z,18.30
2017-11-04T14:02:53.399Z,17.07
2017-11-04T14:05:25.965Z,19.30
2017-11-04T14:07:57.508Z,16.47
2017-11-04T14:10:29.182Z,17.00
2017-11-04T14:13:00.551Z,18.00
2017-11-04T14:15:32.752Z,15.03
2017-11-04T14:18:07.422Z,17.63
2017-11-04T14:20:40.720Z,16.27
2017-11-04T14:23:13.073Z,15.90
2017-11-04T14:25:45.288Z,15.73
2017-11-04T14:28:20.053Z,15.40
2017-11-04T14:30:52.200Z,16.03
2017-11-04T14:33:25.535Z,14.33
2017-11-04T14:35:59.240Z,14.50
2017-11-04T14:38:32.159Z,12.80
2017-11-04T14:41:04.769Z,14.83
2017-11-04T14:43:36.874Z,15.77
2017-11-04T14:46:08.211Z,15.00
2017-11-04T14:48:40.562Z,12.63
2017-11-04T14:51:15.752Z,14.53
2017-11-04T14:53:49.667Z,12.37
2017-11-04T14:56:22.338Z,14.63
2017-11-04T14:58:55.749Z,13.00
2017-11-04T15:01:28.634Z,14.30
2017-11-04T15:04:00.998Z,13.17
2017-11-04T15:06:33.824Z,14.60
2017-11-04T15:09:07.455Z,14.03
2017-11-04T15:11:41.129Z,12.60
2017-11-04T15:14:15.019Z,13.00
2017-11-04T15:16:48.357Z,14.20
2017-11-04T15:19:20.772Z,12.70
2017-11-04T15:21:53.741Z,14.20
2017-11-04T15:24:26.798Z,13.40
2017-11-04T15:26:59.387Z,13.17
2017-11-04T15:29:32.247Z,11.80
2017-11-04T15:32:06.725Z,14.77
2017-11-04T15:34:39.246Z,13.33
2017-11-04T15:37:11.844Z,14.07
2017-11-04T15:39:44.506Z,13.90
2017-11-04T15:42:17.577Z,12.80
2017-11-04T15:44:50.495Z,14.07
2017-11-04T15:47:22.772Z,11.93
2017-11-04T15:49:55.346Z,13.87
2017-11-04T15:52:29.989Z,13.60
2017-11-04T15:55:02.645Z,15.10
2017-11-04T15:57:35.118Z,12.57
2017-11-04T16:00:06.322Z,13.63
2017-11-04T16:02:39.229Z,14.20
2017-11-04T16:05:12.277Z,14.50
2017-11-04T16:07:44.364Z,16.80
2017-11-04T16:10:16.693Z,13.73
2017-11-04T16:12:49.380Z,15.43
2017-11-04T16:15:21.663Z,15.13
2017-11-04T16:17:54.438Z,15.63
2017-11-04T16:20:26.788Z,17.33
2017-11-04T16:22:59.279Z,16.70
2017-11-04T16:25:32.060Z,16.20
2017-11-04T16:28:05.217Z,16.43
2017-11-04T16:30:37.900Z,14.07
2017-11-04T16:33:10.849Z,18.07
2017-11-04T16:35:43.798Z,16.97
2017-11-04T16:38:16.987Z,14.53
2017-11-04T16:40:49.546Z,13.80
2017-11-04T16:43:22.399Z,17.93
2017-11-04T16:45:55.517Z,16.80
2017-11-04T16:48:28.300Z,16.83
2017-11-04T16:51:01.083Z,19.53
2017-11-04T16:53:33.844Z,19.63
2017-11-04T16:56:07.710Z,17.67
2017-11-04T16:58:40.006Z,18.70
2017-11-04T17:01:14.726Z,19.60
2017-11-04T17:03:47.300Z,18.53
2017-11-04T17:06:19.575Z,16.80
2017-11-04T17:08:51.617Z,16.03
2017-11-04T17:11:24.380Z,15.43
2017-11-04T17:13:56.958Z,15.53
2017-11-04T17:16:29.907Z,18.23
2017-11-04T17:19:02.744Z,18.77
2017-11-04T17:21:35.438Z,16.13
2017-11-04T17:24:08.632Z,18.80
2017-11-04T17:26:41.505Z,16.23
2017-11-04T17:29:15.414Z,31.07
2017-11-04T17:31:47.527Z,16.43
2017-11-04T17:34:21.148Z,16.87
2017-11-04T17:36:53.431Z,17.60
2017-11-04T17:39:26.668Z,16.30
2017-11-04T17:41:59.546Z,18.60
2017-11-04T17:44:32.692Z,19.53
2017-11-04T17:47:05.846Z,18.93
2017-11-04T17:49:38.774Z,16.77
2017-11-04T17:52:12.025Z,17.30
2017-11-04T17:54:44.923Z,16.27
2017-11-04T17:57:18.322Z,19.10
2017-11-04T17:59:49.979Z,16.43
2017-11-04T18:02:21.401Z,16.30
2017-11-04T18:04:53.093Z,17.03
2017-11-04T18:07:25.931Z,17.20
2017-11-04T18:09:57.263Z,15.50
2017-11-04T18:12:28.925Z,18.30
2017-11-04T18:15:01.611Z,18.30
2017-11-04T18:17:33.227Z,15.93
2017-11-04T18:20:05.422Z,16.60
2017-11-04T18:22:36.740Z,16.77
2017-11-04T18:25:08.376Z,17.10
2017-11-04T18:27:39.848Z,16.53
2017-11-04T18:30:13.643Z,15.77
2017-11-04T18:32:45.250Z,16.83
2017-11-04T18:35:16.592Z,15.73
2017-11-04T18:37:48.246Z,18.57
2017-11-04T18:40:19.909Z,15.00
2017-11-04T18:42:51.240Z,18.30
2017-11-04T18:45:22.853Z,17.10
2017-11-04T18:47:54.554Z,15.83
2017-11-04T18:50:25.859Z,16.87
2017-11-04T18:52:58.030Z,15.50
2017-11-04T18:55:29.354Z,14.00
2017-11-04T18:58:01.484Z,17.27
2017-11-04T19:00:33.146Z,17.23
2017-11-04T19:03:04.750Z,17.07
2017-11-04T19:05:36.137Z,16.43
2017-11-04T19:08:07.744Z,17.50
2017-11-04T19:10:39.117Z,17.17
2017-11-04T19:13:11.655Z,15.33
2017-11-04T19:15:43.427Z,17.40
2017-11-04T19:18:15.654Z,15.13
2017-11-04T19:20:46.958Z,15.97
2017-11-04T19:24:21.600Z,16.83
2017-11-04T19:26:52.923Z,16.03
2017-11-04T19:29:24.568Z,16.97
2017-11-04T19:31:55.862Z,15.63
2017-11-04T19:34:27.150Z,16.60
2017-11-04T19:36:58.833Z,17.30
2017-11-04T19:39:30.208Z,13.93
2017-11-04T19:42:03.366Z,16.60
2017-11-04T19:44:34.672Z,15.70
2017-11-04T19:47:05.991Z,16.47
2017-11-04T19:49:38.497Z,14.67
2017-11-04T19:52:09.912Z,15.37
2017-11-04T19:54:42.819Z,16.57
2017-11-04T19:57:14.434Z,15.37
2017-11-04T19:59:46.071Z,16.27
2017-11-04T20:02:17.620Z,16.80
2017-11-04T20:04:49.330Z,14.00
2017-11-04T20:07:21.253Z,17.07
2017-11-04T20:09:52.644Z,16.97
2017-11-04T20:12:24.367Z,16.20
2017-11-04T20:14:56.708Z,15.30
2017-11-04T20:17:28.038Z,15.13
2017-11-04T20:19:59.663Z,17.80
2017-11-04T20:22:31.035Z,16.47
2017-11-04T20:25:03.829Z,17.73
2017-11-04T20:27:36.365Z,16.47
2017-11-04T20:30:07.897Z,15.00
2017-11-04T20:32:39.785Z,15.30
2017-11-04T20:35:11.207Z,16.60
2017-11-04T20:37:42.530Z,17.40
2017-11-04T20:40:16.573Z,15.83
2017-11-04T20:42:47.912Z,16.80
2017-11-04T20:45:19.588Z,16.97
2017-11-04T20:47:51.775Z,15.97
2017-11-04T20:50:23.073Z,15.40
2017-11-04T20:52:54.723Z,16.67
2017-11-04T20:55:26.111Z,17.70
2017-11-04T20:57:58.242Z,18.03
2017-11-04T21:00:29.897Z,17.00
2017-11-04T21:03:01.450Z,16.27
2017-11-04T21:05:32.819Z,17.60
2017-11-04T21:08:05.658Z,16.70
2017-11-04T21:10:37.376Z,16.47
2017-11-04T21:13:08.740Z,17.53
2017-11-04T21:15:40.991Z,16.17
2017-11-04T21:18:12.830Z,17.77
2017-11-04T21:20:44.695Z,23.63
2017-11-04T21:23:16.329Z,17.03
2017-11-04T21:25:48.649Z,18.00
2017-11-04T21:28:21.212Z,18.07
2017-11-04T21:30:53.527Z,16.53
2017-11-04T21:33:26.130Z,16.57
2017-11-04T21:35:57.445Z,17.33
2017-11-04T21:38:29.767Z,19.50
2017-11-04T21:41:01.642Z,17.83
2017-11-04T21:43:32.991Z,17.90
2017-11-04T21:46:05.423Z,17.60
2017-11-04T21:48:36.717Z,18.40
2017-11-04T21:51:08.094Z,19.67
2017-11-04T21:53:40.444Z,20.33
2017-11-04T21:56:11.869Z,20.30
2017-11-04T21:58:43.267Z,17.13
2017-11-04T22:01:16.219Z,17.00
2017-11-04T22:03:47.518Z,16.43
2017-11-04T22:06:19.547Z,15.40
2017-11-04T22:08:52.332Z,17.53
2017-11-04T22:11:23.665Z,17.03
2017-11-04T22:13:54.952Z,17.67
2017-11-04T22:16:26.591Z,17.50
2017-11-04T22:18:57.906Z,19.37
2017-11-04T22:21:29.239Z,16.37
2017-11-04T22:24:00.907Z,16.70
2017-11-04T22:26:32.340Z,14.10
2017-11-04T22:29:04.030Z,16.97
2017-11-04T22:31:35.713Z,16.50
2017-11-04T22:34:07.017Z,15.93
2017-11-04T22:36:38.599Z,16.60
2017-11-04T22:39:09.926Z,16.10
2017-11-04T22:41:41.219Z,15.70
2017-11-04T22:44:12.753Z,15.43
2017-11-04T22:46:44.054Z,17.53
2017-11-04T22:49:16.176Z,16.90
2017-11-04T22:51:47.504Z,16.60
2017-11-04T22:54:19.383Z,16.47
2017-11-04T22:56:51.005Z,19.10
2017-11-04T22:59:23.358Z,15.60
2017-11-04T23:01:54.880Z,16.70
2017-11-04T23:04:26.512Z,15.93
2017-11-04T23:06:57.788Z,17.27
2017-11-04T23:09:30.522Z,15.47
2017-11-04T23:12:03.912Z,16.90
2017-11-04T23:14:35.239Z,17.57
2017-11-04T23:17:06.525Z,19.13
2017-11-04T23:19:38.104Z,15.67
2017-11-04T23:22:09.411Z,17.23
2017-11-04T23:24:40.733Z,16.23
2017-11-04T23:27:13.680Z,14.50
2017-11-04T23:29:44.948Z,17.93
2017-11-04T23:32:16.987Z,16.57
2017-11-04T23:34:48.322Z,16.93
2017-11-04T23:37:19.849Z,16.53
2017-11-04T23:39:51.479Z,14.67
2017-11-04T23:42:22.796Z,17.23
2017-11-04T23:44:54.112Z,17.90
2017-11-04T23:47:25.735Z,18.20
2017-11-04T23:49:58.031Z,18.10
2017-11-04T23:52:29.346Z,15.37
2017-11-04T23:55:01.072Z,16.27
2017-11-04T23:57:32.422Z,16.43
